sensor_id;sensor_type;location;lat;lon;timestamp;pressure;altitude;pressure_sealevel;temperature;humidity
77281;BME280;66339;47.262;17.144;2023-04-25T00:01:15;99402.84;;;22.18;48.97
77281;BME280;66339;47.262;17.144;2023-04-25T00:03:48;99401.25;;;22.17;48.95
77281;BME280;66339;47.262;17.144;2023-04-25T00:06:19;99394.28;;;22.16;48.98
77281;BME280;66339;47.262;17.144;2023-04-25T00:08:50;99394.28;;;22.16;48.99
77281;BME280;66339;47.262;17.144;2023-04-25T00:11:16;99396.97;;;22.16;48.91
77281;BME280;66339;47.262;17.144;2023-04-25T00:13:43;99390.31;;;22.13;48.96
77281;BME280;66339;47.262;17.144;2023-04-25T00:16:10;99394.91;;;22.13;48.94
77281;BME280;66339;47.262;17.144;2023-04-25T00:18:45;99394.91;;;22.13;48.96
77281;BME280;66339;47.262;17.144;2023-04-25T00:21:15;99392.50;;;22.11;48.92
77281;BME280;66339;47.262;17.144;2023-04-25T00:23:48;99397.09;;;22.11;48.88
77281;BME280;66339;47.262;17.144;2023-04-25T00:26:16;99403.59;;;22.10;48.92
77281;BME280;66339;47.262;17.144;2023-04-25T00:28:47;99402.03;;;22.09;48.89
77281;BME280;66339;47.262;17.144;2023-04-25T00:31:18;99400.13;;;22.09;48.82
77281;BME280;66339;47.262;17.144;2023-04-25T00:33:52;99399.63;;;22.07;48.85
77281;BME280;66339;47.262;17.144;2023-04-25T00:36:19;99401.53;;;22.06;48.86
77281;BME280;66339;47.262;17.144;2023-04-25T00:38:46;99404.22;;;22.06;48.86
77281;BME280;66339;47.262;17.144;2023-04-25T00:41:16;99405.34;;;22.05;48.87
77281;BME280;66339;47.262;17.144;2023-04-25T00:43:47;99407.53;;;22.03;48.90
77281;BME280;66339;47.262;17.144;2023-04-25T00:46:16;99404.38;;;22.01;48.93
77281;BME280;66339;47.262;17.144;2023-04-25T00:48:48;99411.34;;;22.02;48.87
77281;BME280;66339;47.262;17.144;2023-04-25T00:51:21;99400.91;;;22.01;48.88
77281;BME280;66339;47.262;17.144;2023-04-25T00:53:52;99395.81;;;21.99;48.93
77281;BME280;66339;47.262;17.144;2023-04-25T00:56:19;99401.19;;;21.99;48.88
77281;BME280;66339;47.262;17.144;2023-04-25T00:58:52;99398.03;;;21.97;48.89
77281;BME280;66339;47.262;17.144;2023-04-25T01:01:19;99393.44;;;21.98;48.85
77281;BME280;66339;47.262;17.144;2023-04-25T01:03:50;99404.50;;;21.96;48.87
77281;BME280;66339;47.262;17.144;2023-04-25T01:06:26;99399.44;;;21.95;48.91
77281;BME280;66339;47.262;17.144;2023-04-25T01:08:59;99402.94;;;21.95;48.89
77281;BME280;66339;47.262;17.144;2023-04-25T01:11:29;99399.78;;;21.93;48.91
77281;BME280;66339;47.262;17.144;2023-04-25T01:13:59;99398.16;;;21.92;48.91
77281;BME280;66339;47.262;17.144;2023-04-25T01:16:32;99403.56;;;21.92;48.85
77281;BME280;66339;47.262;17.144;2023-04-25T01:19:02;99396.25;;;21.93;48.83
77281;BME280;66339;47.262;17.144;2023-04-25T01:21:37;99400.06;;;21.92;48.82
77281;BME280;66339;47.262;17.144;2023-04-25T01:24:11;99391.53;;;21.90;48.85
77281;BME280;66339;47.262;17.144;2023-04-25T01:26:41;99395.00;;;21.90;48.82
77281;BME280;66339;47.262;17.144;2023-04-25T01:29:09;99394.53;;;21.88;48.84
77281;BME280;66339;47.262;17.144;2023-04-25T01:31:36;99390.25;;;21.87;48.89
77281;BME280;66339;47.262;17.144;2023-04-25T01:34:08;99398.31;;;21.87;48.86
77281;BME280;66339;47.262;17.144;2023-04-25T01:36:38;99398.31;;;21.87;48.81
77281;BME280;66339;47.262;17.144;2023-04-25T01:39:17;99399.44;;;21.86;48.78
77281;BME280;66339;47.262;17.144;2023-04-25T01:41:45;99392.47;;;21.85;48.80
77281;BME280;66339;47.262;17.144;2023-04-25T01:44:22;99388.97;;;21.85;48.81
77281;BME280;66339;47.262;17.144;2023-04-25T01:46:51;99395.16;;;21.85;48.88
77281;BME280;66339;47.262;17.144;2023-04-25T01:49:19;99382.00;;;21.84;48.82
77281;BME280;66339;47.262;17.144;2023-04-25T01:51:49;99393.09;;;21.82;48.86
77281;BME280;66339;47.262;17.144;2023-04-25T01:54:20;99391.81;;;21.79;48.89
77281;BME280;66339;47.262;17.144;2023-04-25T01:59:26;99392.13;;;21.78;48.86
77281;BME280;66339;47.262;17.144;2023-04-25T02:01:54;99393.72;;;21.79;48.82
77281;BME280;66339;47.262;17.144;2023-04-25T02:04:25;99389.44;;;21.78;48.84
77281;BME280;66339;47.262;17.144;2023-04-25T02:06:56;99393.22;;;21.77;48.81
77281;BME280;66339;47.262;17.144;2023-04-25T02:09:30;99391.66;;;21.76;48.85
77281;BME280;66339;47.262;17.144;2023-04-25T02:12:00;99390.84;;;21.75;48.83
77281;BME280;66339;47.262;17.144;2023-04-25T02:14:28;99393.53;;;21.75;48.82
77281;BME280;66339;47.262;17.144;2023-04-25T02:17:03;99393.38;;;21.72;48.85
77281;BME280;66339;47.262;17.144;2023-04-25T02:19:34;99395.44;;;21.75;48.77
77281;BME280;66339;47.262;17.144;2023-04-25T02:22:13;99396.56;;;21.74;48.82
77281;BME280;66339;47.262;17.144;2023-04-25T02:24:43;99389.09;;;21.71;48.82
77281;BME280;66339;47.262;17.144;2023-04-25T02:27:17;99389.09;;;21.71;48.82
77281;BME280;66339;47.262;17.144;2023-04-25T02:29:47;99390.69;;;21.72;48.79
77281;BME280;66339;47.262;17.144;2023-04-25T02:32:15;99394.50;;;21.71;48.77
77281;BME280;66339;47.262;17.144;2023-04-25T02:34:42;99393.69;;;21.70;48.73
77281;BME280;66339;47.262;17.144;2023-04-25T02:37:13;99394.50;;;21.71;48.75
77281;BME280;66339;47.262;17.144;2023-04-25T02:39:41;99396.69;;;21.69;48.83
77281;BME280;66339;47.262;17.144;2023-04-25T02:42:14;99389.25;;;21.66;48.84
77281;BME280;66339;47.262;17.144;2023-04-25T02:44:47;99388.16;;;21.67;48.84
77281;BME280;66339;47.262;17.144;2023-04-25T02:47:21;99388.94;;;21.67;48.80
77281;BME280;66339;47.262;17.144;2023-04-25T02:49:49;99388.44;;;21.65;48.80
77281;BME280;66339;47.262;17.144;2023-04-25T02:52:22;99375.81;;;21.66;48.77
77281;BME280;66339;47.262;17.144;2023-04-25T02:54:56;99379.56;;;21.65;48.79
77281;BME280;66339;47.262;17.144;2023-04-25T02:57:29;99379.56;;;21.65;48.79
77281;BME280;66339;47.262;17.144;2023-04-25T02:59:59;99388.75;;;21.64;48.64
77281;BME280;66339;47.262;17.144;2023-04-25T03:02:29;99387.19;;;21.63;48.33
77281;BME280;66339;47.262;17.144;2023-04-25T03:05:00;99389.38;;;21.61;48.30
77281;BME280;66339;47.262;17.144;2023-04-25T03:07:37;99393.19;;;21.60;48.39
77281;BME280;66339;47.262;17.144;2023-04-25T03:10:05;99385.13;;;21.60;48.28
77281;BME280;66339;47.262;17.144;2023-04-25T03:12:37;99383.53;;;21.59;48.35
77281;BME280;66339;47.262;17.144;2023-04-25T03:15:10;99386.22;;;21.59;48.33
77281;BME280;66339;47.262;17.144;2023-04-25T03:17:42;99385.72;;;21.56;48.29
77281;BME280;66339;47.262;17.144;2023-04-25T03:20:12;99381.47;;;21.55;48.26
77281;BME280;66339;47.262;17.144;2023-04-25T03:22:39;99388.41;;;21.56;48.22
77281;BME280;66339;47.262;17.144;2023-04-25T03:25:13;99388.41;;;21.56;48.19
77281;BME280;66339;47.262;17.144;2023-04-25T03:27:44;99385.25;;;21.54;48.27
77281;BME280;66339;47.262;17.144;2023-04-25T03:30:15;99389.03;;;21.53;48.22
77281;BME280;66339;47.262;17.144;2023-04-25T03:32:46;99383.66;;;21.53;48.22
77281;BME280;66339;47.262;17.144;2023-04-25T03:35:13;99383.97;;;21.52;48.23
77281;BME280;66339;47.262;17.144;2023-04-25T03:37:41;99385.88;;;21.51;48.25
77281;BME280;66339;47.262;17.144;2023-04-25T03:40:15;99382.69;;;21.49;48.21
77281;BME280;66339;47.262;17.144;2023-04-25T03:42:46;99388.06;;;21.49;48.18
77281;BME280;66339;47.262;17.144;2023-04-25T03:45:19;99386.50;;;21.48;48.21
77281;BME280;66339;47.262;17.144;2023-04-25T03:47:49;99387.28;;;21.49;48.18
77281;BME280;66339;47.262;17.144;2023-04-25T03:50:20;99391.87;;;21.48;48.13
77281;BME280;66339;47.262;17.144;2023-04-25T03:52:51;99391.87;;;21.48;48.15
77281;BME280;66339;47.262;17.144;2023-04-25T03:55:22;99395.69;;;21.47;48.17
77281;BME280;66339;47.262;17.144;2023-04-25T03:57:52;99390.31;;;21.47;48.15
77281;BME280;66339;47.262;17.144;2023-04-25T04:00:25;99398.19;;;21.44;48.16
77281;BME280;66339;47.262;17.144;2023-04-25T04:02:56;99392.03;;;21.43;48.11
77281;BME280;66339;47.262;17.144;2023-04-25T04:05:29;99400.09;;;21.43;48.20
77281;BME280;66339;47.262;17.144;2023-04-25T04:08:02;99397.09;;;21.45;48.25
77281;BME280;66339;47.262;17.144;2023-04-25T04:10:33;99406.44;;;21.47;48.26
77281;BME280;66339;47.262;17.144;2023-04-25T04:13:06;99409.59;;;21.49;48.25
77281;BME280;66339;47.262;17.144;2023-04-25T04:15:37;99402.66;;;21.48;48.36
77281;BME280;66339;47.262;17.144;2023-04-25T04:18:06;99409.94;;;21.48;48.42
77281;BME280;66339;47.262;17.144;2023-04-25T04:20:37;99407.56;;;21.46;48.46
77281;BME280;66339;47.262;17.144;2023-04-25T04:23:08;99408.53;;;21.50;48.34
77281;BME280;66339;47.262;17.144;2023-04-25T04:25:35;99412.16;;;21.54;48.17
77281;BME280;66339;47.262;17.144;2023-04-25T04:28:05;99407.41;;;21.51;48.24
77281;BME280;66339;47.262;17.144;2023-04-25T04:30:35;99406.00;;;21.54;48.13
77281;BME280;66339;47.262;17.144;2023-04-25T04:33:05;99412.97;;;21.55;48.02
77281;BME280;66339;47.262;17.144;2023-04-25T04:35:38;99414.53;;;21.56;47.97
77281;BME280;66339;47.262;17.144;2023-04-25T04:38:06;99413.75;;;21.55;47.98
77281;BME280;66339;47.262;17.144;2023-04-25T04:40:33;99422.16;;;21.54;48.00
77281;BME280;66339;47.262;17.144;2023-04-25T04:43:05;99426.72;;;21.53;47.93
77281;BME280;66339;47.262;17.144;2023-04-25T04:45:32;99435.88;;;21.52;47.92
77281;BME280;66339;47.262;17.144;2023-04-25T04:48:03;99437.00;;;21.51;47.96
77281;BME280;66339;47.262;17.144;2023-04-25T04:50:33;99437.31;;;21.50;48.01
77281;BME280;66339;47.262;17.144;2023-04-25T04:53:09;99438.13;;;21.50;47.92
77281;BME280;66339;47.262;17.144;2023-04-25T04:55:39;99438.72;;;21.47;47.97
77281;BME280;66339;47.262;17.144;2023-04-25T04:58:06;99433.34;;;21.47;47.96
77281;BME280;66339;47.262;17.144;2023-04-25T05:00:37;99435.84;;;21.44;48.01
77281;BME280;66339;47.262;17.144;2023-04-25T05:03:09;99427.00;;;21.43;48.00
77281;BME280;66339;47.262;17.144;2023-04-25T05:05:37;99437.75;;;21.43;47.99
77281;BME280;66339;47.262;17.144;2023-04-25T05:08:07;99435.38;;;21.42;48.01
77281;BME280;66339;47.262;17.144;2023-04-25T05:10:36;99429.19;;;21.41;48.01
77281;BME280;66339;47.262;17.144;2023-04-25T05:13:06;99442.66;;;21.41;48.02
77281;BME280;66339;47.262;17.144;2023-04-25T05:15:36;99440.28;;;21.40;48.02
77281;BME280;66339;47.262;17.144;2023-04-25T05:18:06;99440.59;;;21.38;47.99
77281;BME280;66339;47.262;17.144;2023-04-25T05:20:36;99442.47;;;21.38;47.96
77281;BME280;66339;47.262;17.144;2023-04-25T05:23:04;99439.00;;;21.37;47.96
77281;BME280;66339;47.262;17.144;2023-04-25T05:25:32;99435.22;;;21.38;47.92
77281;BME280;66339;47.262;17.144;2023-04-25T05:28:06;99431.56;;;21.34;48.18
77281;BME280;66339;47.262;17.144;2023-04-25T05:30:39;99440.22;;;21.31;48.20
77281;BME280;66339;47.262;17.144;2023-04-25T05:33:09;99437.81;;;21.29;48.37
77281;BME280;66339;47.262;17.144;2023-04-25T05:35:37;99435.25;;;21.24;48.42
77281;BME280;66339;47.262;17.144;2023-04-25T05:38:05;99432.56;;;21.24;48.40
77281;BME280;66339;47.262;17.144;2023-04-25T05:40:36;99434.47;;;21.24;48.38
77281;BME280;66339;47.262;17.144;2023-04-25T05:43:06;99433.00;;;21.18;48.84
77281;BME280;66339;47.262;17.144;2023-04-25T05:45:40;99433.84;;;21.27;48.81
77281;BME280;66339;47.262;17.144;2023-04-25T05:48:09;99439.25;;;21.27;49.08
77281;BME280;66339;47.262;17.144;2023-04-25T05:50:43;99435.25;;;21.24;49.43
77281;BME280;66339;47.262;17.144;2023-04-25T05:53:15;99429.56;;;21.26;49.64
77281;BME280;66339;47.262;17.144;2023-04-25T05:55:46;99433.53;;;21.28;49.78
77281;BME280;66339;47.262;17.144;2023-04-25T05:58:14;99440.81;;;21.28;49.89
77281;BME280;66339;47.262;17.144;2023-04-25T06:00:44;99435.44;;;21.28;49.80
77281;BME280;66339;47.262;17.144;2023-04-25T06:03:13;99441.59;;;21.28;49.82
77281;BME280;66339;47.262;17.144;2023-04-25T06:05:46;99434.81;;;21.31;49.72
77281;BME280;66339;47.262;17.144;2023-04-25T06:08:13;99444.00;;;21.30;49.72
77281;BME280;66339;47.262;17.144;2023-04-25T06:10:41;99435.25;;;21.24;49.94
77281;BME280;66339;47.262;17.144;2023-04-25T06:13:08;99443.00;;;21.26;49.68
77281;BME280;66339;47.262;17.144;2023-04-25T06:15:43;99440.03;;;21.27;49.63
77281;BME280;66339;47.262;17.144;2023-04-25T06:18:11;99437.53;;;21.31;49.73
77281;BME280;66339;47.262;17.144;2023-04-25T06:20:42;99437.22;;;21.32;49.54
77281;BME280;66339;47.262;17.144;2023-04-25T06:23:12;99444.00;;;21.30;49.71
77281;BME280;66339;47.262;17.144;2023-04-25T06:25:39;99437.22;;;21.32;49.43
77281;BME280;66339;47.262;17.144;2023-04-25T06:28:10;99440.31;;;21.26;48.45
77281;BME280;66339;47.262;17.144;2023-04-25T06:30:43;99434.66;;;21.27;48.70
77281;BME280;66339;47.262;17.144;2023-04-25T06:33:18;99436.53;;;21.27;49.06
77281;BME280;66339;47.262;17.144;2023-04-25T06:35:47;99431.28;;;21.22;49.00
77281;BME280;66339;47.262;17.144;2023-04-25T06:38:18;99435.09;;;21.21;49.04
77281;BME280;66339;47.262;17.144;2023-04-25T06:40:49;99428.13;;;21.20;48.88
77281;BME280;66339;47.262;17.144;2023-04-25T06:43:16;99435.09;;;21.21;48.84
77281;BME280;66339;47.262;17.144;2023-04-25T06:45:43;99434.91;;;21.17;48.90
77281;BME280;66339;47.262;17.144;2023-04-25T06:48:17;99436.78;;;21.17;48.97
77281;BME280;66339;47.262;17.144;2023-04-25T06:50:45;99435.69;;;21.18;49.02
77281;BME280;66339;47.262;17.144;2023-04-25T06:53:12;99429.22;;;21.19;49.43
77281;BME280;66339;47.262;17.144;2023-04-25T06:55:42;99433.50;;;21.20;49.26
77281;BME280;66339;47.262;17.144;2023-04-25T06:58:13;99429.69;;;21.21;49.56
77281;BME280;66339;47.262;17.144;2023-04-25T07:00:42;99427.50;;;21.23;49.54
77281;BME280;66339;47.262;17.144;2023-04-25T07:03:09;99419.91;;;21.25;49.45
77281;BME280;66339;47.262;17.144;2023-04-25T07:05:37;99428.47;;;21.27;49.47
77281;BME280;66339;47.262;17.144;2023-04-25T07:08:08;99432.25;;;21.26;49.56
77281;BME280;66339;47.262;17.144;2023-04-25T07:10:35;99428.47;;;21.27;49.61
77281;BME280;66339;47.262;17.144;2023-04-25T07:13:03;99426.88;;;21.26;49.74
77281;BME280;66339;47.262;17.144;2023-04-25T07:15:32;99426.88;;;21.26;49.72
77281;BME280;66339;47.262;17.144;2023-04-25T07:18:05;99427.97;;;21.25;49.78
77281;BME280;66339;47.262;17.144;2023-04-25T07:20:33;99424.50;;;21.24;49.92
77281;BME280;66339;47.262;17.144;2023-04-25T07:23:01;99422.13;;;21.23;49.75
77281;BME280;66339;47.262;17.144;2023-04-25T07:25:42;99418.94;;;21.21;49.81
77281;BME280;66339;47.262;17.144;2023-04-25T07:28:10;99417.38;;;21.20;49.95
77281;BME280;66339;47.262;17.144;2023-04-25T07:30:46;99418.94;;;21.21;50.24
77281;BME280;66339;47.262;17.144;2023-04-25T07:33:13;99424.81;;;21.23;50.54
77281;BME280;66339;47.262;17.144;2023-04-25T07:35:41;99416.44;;;21.24;50.43
77281;BME280;66339;47.262;17.144;2023-04-25T07:38:17;99419.13;;;21.24;50.92
77281;BME280;66339;47.262;17.144;2023-04-25T07:40:50;99422.31;;;21.26;51.01
77281;BME280;66339;47.262;17.144;2023-04-25T07:43:20;99424.69;;;21.28;50.55
77281;BME280;66339;47.262;17.144;2023-04-25T07:45:52;99417.13;;;21.30;50.37
77281;BME280;66339;47.262;17.144;2023-04-25T07:48:23;99421.66;;;21.29;50.22
77281;BME280;66339;47.262;17.144;2023-04-25T07:50:53;99416.63;;;21.28;50.35
77281;BME280;66339;47.262;17.144;2023-04-25T07:53:23;99425.19;;;21.30;50.24
77281;BME280;66339;47.262;17.144;2023-04-25T07:55:54;99417.72;;;21.27;50.31
77281;BME280;66339;47.262;17.144;2023-04-25T07:58:28;99407.44;;;21.29;50.41
77281;BME280;66339;47.262;17.144;2023-04-25T08:00:59;99410.91;;;21.29;50.47
77281;BME280;66339;47.262;17.144;2023-04-25T08:03:30;99403.78;;;21.25;50.83
77281;BME280;66339;47.262;17.144;2023-04-25T08:05:58;99410.72;;;21.26;50.86
77281;BME280;66339;47.262;17.144;2023-04-25T08:08:29;99411.22;;;21.28;50.81
77281;BME280;66339;47.262;17.144;2023-04-25T08:10:59;99394.59;;;21.26;50.18
77281;BME280;66339;47.262;17.144;2023-04-25T08:13:27;99381.16;;;21.26;50.45
77281;BME280;66339;47.262;17.144;2023-04-25T08:16:02;99399.97;;;21.26;50.57
77281;BME280;66339;47.262;17.144;2023-04-25T08:18:34;99397.78;;;21.28;50.68
77281;BME280;66339;47.262;17.144;2023-04-25T08:21:04;99398.91;;;21.27;50.66
77281;BME280;66339;47.262;17.144;2023-04-25T08:23:37;99391.63;;;21.27;50.67
77281;BME280;66339;47.262;17.144;2023-04-25T08:26:07;99393.53;;;21.27;50.69
77281;BME280;66339;47.262;17.144;2023-04-25T08:28:37;99401.59;;;21.27;50.59
77281;BME280;66339;47.262;17.144;2023-04-25T08:31:03;99393.03;;;21.25;50.43
77281;BME280;66339;47.262;17.144;2023-04-25T08:33:33;99384.94;;;21.25;47.92
77281;BME280;66339;47.262;17.144;2023-04-25T08:36:00;99395.25;;;21.23;47.66
77281;BME280;66339;47.262;17.144;2023-04-25T08:38:27;99383.37;;;21.24;46.92
77281;BME280;66339;47.262;17.144;2023-04-25T08:40:54;99384.47;;;21.23;47.53
77281;BME280;66339;47.262;17.144;2023-04-25T08:43:24;99385.75;;;21.25;46.93
77281;BME280;66339;47.262;17.144;2023-04-25T08:45:54;99382.75;;;21.27;47.16
77281;BME280;66339;47.262;17.144;2023-04-25T08:48:33;99381.66;;;21.28;47.17
77281;BME280;66339;47.262;17.144;2023-04-25T08:51:01;99381.81;;;21.31;46.02
77281;BME280;66339;47.262;17.144;2023-04-25T08:53:29;99376.66;;;21.35;45.87
77281;BME280;66339;47.262;17.144;2023-04-25T08:56:00;99377.13;;;21.37;46.20
77281;BME280;66339;47.262;17.144;2023-04-25T08:58:30;99377.63;;;21.39;46.79
77281;BME280;66339;47.262;17.144;2023-04-25T09:00:57;99385.53;;;21.44;46.39
77281;BME280;66339;47.262;17.144;2023-04-25T09:03:27;99383.63;;;21.45;45.73
77281;BME280;66339;47.262;17.144;2023-04-25T09:05:57;99389.63;;;21.42;45.87
77281;BME280;66339;47.262;17.144;2023-04-25T09:08:26;99388.91;;;21.50;47.99
77281;BME280;66339;47.262;17.144;2023-04-25T09:10:53;99391.72;;;21.53;48.53
77281;BME280;66339;47.262;17.144;2023-04-25T09:13:28;99395.41;;;21.58;48.51
77281;BME280;66339;47.262;17.144;2023-04-25T09:15:56;99384.00;;;21.61;48.64
77281;BME280;66339;47.262;17.144;2023-04-25T09:18:27;99391.00;;;21.62;48.73
77281;BME280;66339;47.262;17.144;2023-04-25T09:21:07;99401.09;;;21.65;48.77
77281;BME280;66339;47.262;17.144;2023-04-25T09:23:46;99411.25;;;21.68;48.70
77281;BME280;66339;47.262;17.144;2023-04-25T09:26:20;99409.84;;;21.70;48.75
77281;BME280;66339;47.262;17.144;2023-04-25T09:28:47;99402.56;;;21.71;48.73
77281;BME280;66339;47.262;17.144;2023-04-25T09:31:23;99399.25;;;21.74;48.74
77281;BME280;66339;47.262;17.144;2023-04-25T09:33:50;99394.34;;;21.76;48.75
77281;BME280;66339;47.262;17.144;2023-04-25T09:36:26;99396.41;;;21.79;48.14
77281;BME280;66339;47.262;17.144;2023-04-25T09:38:53;99395.44;;;21.75;48.18
77281;BME280;66339;47.262;17.144;2023-04-25T09:41:24;99383.09;;;21.74;48.22
77281;BME280;66339;47.262;17.144;2023-04-25T09:43:58;99395.78;;;21.73;48.38
77281;BME280;66339;47.262;17.144;2023-04-25T09:46:32;99393.69;;;21.70;48.81
77281;BME280;66339;47.262;17.144;2023-04-25T09:48:59;99391.31;;;21.69;48.82
77281;BME280;66339;47.262;17.144;2023-04-25T09:51:38;99393.38;;;21.72;48.83
77281;BME280;66339;47.262;17.144;2023-04-25T09:54:10;99394.16;;;21.64;49.25
77281;BME280;66339;47.262;17.144;2023-04-25T09:56:37;99390.06;;;21.75;49.19
77281;BME280;66339;47.262;17.144;2023-04-25T09:59:07;99393.56;;;21.84;48.97
77281;BME280;66339;47.262;17.144;2023-04-25T10:01:36;99396.41;;;21.88;48.84
77281;BME280;66339;47.262;17.144;2023-04-25T10:04:10;99394.53;;;21.88;48.89
77281;BME280;66339;47.262;17.144;2023-04-25T10:06:45;99393.91;;;21.91;48.80
77281;BME280;66339;47.262;17.144;2023-04-25T10:09:16;99385.97;;;21.86;49.24
77281;BME280;66339;47.262;17.144;2023-04-25T10:11:45;99378.38;;;21.88;48.95
77281;BME280;66339;47.262;17.144;2023-04-25T10:14:13;99386.75;;;21.87;48.92
77281;BME280;66339;47.262;17.144;2023-04-25T10:16:46;99370.44;;;21.83;49.08
77281;BME280;66339;47.262;17.144;2023-04-25T10:19:15;99362.53;;;21.78;49.24
77281;BME280;66339;47.262;17.144;2023-04-25T10:22:02;99360.31;;;21.80;49.24
77281;BME280;66339;47.262;17.144;2023-04-25T10:24:31;99355.06;;;21.75;49.54
77281;BME280;66339;47.262;17.144;2023-04-25T10:27:04;99351.59;;;21.74;49.69
77281;BME280;66339;47.262;17.144;2023-04-25T10:29:32;99351.44;;;21.71;49.70
77281;BME280;66339;47.262;17.144;2023-04-25T10:32:00;99356.81;;;21.71;49.67
77281;BME280;66339;47.262;17.144;2023-04-25T10:34:43;99363.59;;;21.68;49.68
77281;BME280;66339;47.262;17.144;2023-04-25T10:37:12;99359.66;;;21.66;49.79
77281;BME280;66339;47.262;17.144;2023-04-25T10:39:43;99354.56;;;21.64;49.96
77281;BME280;66339;47.262;17.144;2023-04-25T10:42:15;99341.12;;;21.64;50.13
77281;BME280;66339;47.262;17.144;2023-04-25T10:44:47;99347.94;;;21.62;50.25
77281;BME280;66339;47.262;17.144;2023-04-25T10:47:36;99344.13;;;21.63;50.27
77281;BME280;66339;47.262;17.144;2023-04-25T10:50:07;99333.38;;;21.63;49.88
77281;BME280;66339;47.262;17.144;2023-04-25T10:52:34;99337.00;;;21.58;49.62
77281;BME280;66339;47.262;17.144;2023-04-25T10:55:03;99336.50;;;21.56;49.95
77281;BME280;66339;47.262;17.144;2023-04-25T10:57:37;99336.34;;;21.52;50.22
77281;BME280;66339;47.262;17.144;2023-04-25T11:00:13;99330.50;;;21.50;50.50
77281;BME280;66339;47.262;17.144;2023-04-25T11:02:45;99332.06;;;21.51;50.54
77281;BME280;66339;47.262;17.144;2023-04-25T11:05:25;99318.94;;;21.50;50.59
77281;BME280;66339;47.262;17.144;2023-04-25T11:08:00;99318.13;;;21.49;50.82
77281;BME280;66339;47.262;17.144;2023-04-25T11:10:47;99322.72;;;21.49;50.88
77281;BME280;66339;47.262;17.144;2023-04-25T11:13:20;99313.06;;;21.48;50.85
77281;BME280;66339;47.262;17.144;2023-04-25T11:15:51;99308.97;;;21.50;50.86
77281;BME280;66339;47.262;17.144;2023-04-25T11:18:40;99314.34;;;21.50;51.01
77281;BME280;66339;47.262;17.144;2023-04-25T11:21:07;99308.19;;;21.50;51.00
77281;BME280;66339;47.262;17.144;2023-04-25T11:23:35;99320.19;;;21.44;51.47
77281;BME280;66339;47.262;17.144;2023-04-25T11:26:04;99312.75;;;21.49;50.94
77281;BME280;66339;47.262;17.144;2023-04-25T11:28:31;99310.56;;;21.51;50.95
77281;BME280;66339;47.262;17.144;2023-04-25T11:30:58;99308.19;;;21.50;51.07
77281;BME280;66339;47.262;17.144;2023-04-25T11:33:27;99311.84;;;21.54;51.04
77281;BME280;66339;47.262;17.144;2023-04-25T11:35:54;99309.59;;;21.56;50.96
77281;BME280;66339;47.262;17.144;2023-04-25T11:38:22;99306.28;;;21.59;50.77
77281;BME280;66339;47.262;17.144;2023-04-25T11:40:54;99313.75;;;21.62;50.90
77281;BME280;66339;47.262;17.144;2023-04-25T11:43:22;99312.00;;;21.66;50.60
77281;BME280;66339;47.262;17.144;2023-04-25T11:45:52;99299.81;;;21.69;50.50
77281;BME280;66339;47.262;17.144;2023-04-25T11:48:23;99298.06;;;21.73;50.28
77281;BME280;66339;47.262;17.144;2023-04-25T11:50:57;99298.56;;;21.75;50.39
77281;BME280;66339;47.262;17.144;2023-04-25T11:53:26;99297.94;;;21.78;50.38
77281;BME280;66339;47.262;17.144;2023-04-25T11:55:56;99295.06;;;21.83;50.47
77281;BME280;66339;47.262;17.144;2023-04-25T11:58:27;99300.47;;;21.83;50.63
77281;BME280;66339;47.262;17.144;2023-04-25T12:00:57;99306.63;;;21.84;50.61
77281;BME280;66339;47.262;17.144;2023-04-25T12:03:29;99309.03;;;21.85;50.56
77281;BME280;66339;47.262;17.144;2023-04-25T12:06:03;99311.22;;;21.83;50.56
77281;BME280;66339;47.262;17.144;2023-04-25T12:08:32;99319.12;;;21.79;50.70
77281;BME280;66339;47.262;17.144;2023-04-25T12:11:00;99322.28;;;21.73;51.23
77281;BME280;66339;47.262;17.144;2023-04-25T12:13:27;99321.66;;;21.76;50.52
77281;BME280;66339;47.262;17.144;2023-04-25T12:15:58;99320.72;;;21.72;50.32
77281;BME280;66339;47.262;17.144;2023-04-25T12:18:27;99313.75;;;21.71;50.65
77281;BME280;66339;47.262;17.144;2023-04-25T12:20:56;99318.34;;;21.70;50.71
77281;BME280;66339;47.262;17.144;2023-04-25T12:23:27;99309.47;;;21.70;50.63
77281;BME280;66339;47.262;17.144;2023-04-25T12:26:00;99325.94;;;21.68;50.53
77281;BME280;66339;47.262;17.144;2023-04-25T12:28:34;99316.59;;;21.66;50.53
77281;BME280;66339;47.262;17.144;2023-04-25T12:31:07;99317.22;;;21.63;50.38
77281;BME280;66339;47.262;17.144;2023-04-25T12:33:38;99323.22;;;21.60;50.38
77281;BME280;66339;47.262;17.144;2023-04-25T12:36:08;99321.66;;;21.59;50.37
77281;BME280;66339;47.262;17.144;2023-04-25T12:38:37;99326.25;;;21.58;50.31
77281;BME280;66339;47.262;17.144;2023-04-25T12:41:04;99323.84;;;21.56;50.27
77281;BME280;66339;47.262;17.144;2023-04-25T12:43:32;99322.87;;;21.52;50.29
77281;BME280;66339;47.262;17.144;2023-04-25T12:46:05;99333.66;;;21.52;50.11
77281;BME280;66339;47.262;17.144;2023-04-25T12:48:34;99328.28;;;21.52;50.05
77281;BME280;66339;47.262;17.144;2023-04-25T12:51:01;99319.72;;;21.50;49.87
77281;BME280;66339;47.262;17.144;2023-04-25T12:53:31;99332.69;;;21.48;50.94
77281;BME280;66339;47.262;17.144;2023-04-25T12:56:04;99336.50;;;21.47;51.16
77281;BME280;66339;47.262;17.144;2023-04-25T12:58:34;99333.47;;;21.49;51.61
77281;BME280;66339;47.262;17.144;2023-04-25T13:01:08;99329.72;;;21.50;51.35
77281;BME280;66339;47.262;17.144;2023-04-25T13:03:42;99323.84;;;21.48;51.60
77281;BME280;66339;47.262;17.144;2023-04-25T13:06:12;99312.12;;;21.52;51.68
77281;BME280;66339;47.262;17.144;2023-04-25T13:08:42;99319.72;;;21.50;51.66
77281;BME280;66339;47.262;17.144;2023-04-25T13:11:09;99324.00;;;21.51;51.74